Aérodrome :
LOGIN :

S'inscrire | Disclaimer

   EN    FR    IT 

 










Légende :    VFR   VFR Marginal   IFR   IFR Intensif   IFR Très Intensif
Visi : 
Plafond : 
>= 8 km
>= 3000ft
5 à 8 km
1000 à 3000 ft
1500m à 5 km
500 à 1000 ft
800 à 1500m
200 à 500 ft
< 800m
< 200 ft
Symboles :   Orages  Brouillard  Fortes neiges  Fortes précipitations  Vent > 20 kt
SIGMETs :   Divers  Orages  Givrage  Turbulence  Onde Orograph.  Cendres Volcan.






- Altitude de l'aérodrome : 1411 ft
- Code IATA : SZG


LOWS - Salzburg

DERNIER METAR :
  • 220050Z AUTO 17005KT 9999 2500S BR FEW250 08/08 Q1023

METARs EXPIRÉS :
  • 220020Z AUTO VRB01KT 9999 FEW020 SCT250 08/08 Q1023
  • 212350Z AUTO VRB01KT 9999 FEW022 SCT250 08/08 Q1023
  • 212320Z AUTO VRB02KT 4500 BR FEW001 08/08 Q1022
  • 212250Z AUTO VRB02KT 9999 FEW240 09/09 Q1022
  • 212220Z AUTO 19003KT 9999 FEW220 SCT250 09/09 Q1022

TAF TAF LOWS
Valide du 22 à 00h jusqu'au 23 à 00h UTC


212315Z 2200/2224 15005KT CAVOK TX18/2213Z TN10/2206Z
TEMPO 2200/2208 VRB01KT 1200 BCFG BKN008
BECMG 2208/2210 01005KT
BECMG 2217/2219 15005KT 7000 BR BKN012
TEMPO 2221/2224 1200 BCFG BKN008



MET'MAP, la Météo Aéronautique d'un coup d'oeil ! - Copyright ORBIFLY Décembre 2007 - Disclaimer

ORBIFLY MET'MAP TEAM :

Programmation & Développement : Alexandra Zaïnal
Conception & Développement : Baudouin d'Aumeries
Co-Programmation & Développement : Marc-Olivier Méhu
Soutien technique & logistique : Manuel Goepfert

Contact : metmap@orbifly.com




SOURCES & CREDITS :

   NOAA